sensor_id;sensor_type;location;lat;lon;timestamp;P1;durP1;ratioP1;P2;durP2;ratioP2
19903;SDS011;10114;50.970;4.962;2024-02-15T00:02:15;7.88;;;2.85;;
19903;SDS011;10114;50.970;4.962;2024-02-15T00:04:42;8.40;;;2.72;;
19903;SDS011;10114;50.970;4.962;2024-02-15T00:07:08;9.48;;;2.80;;
19903;SDS011;10114;50.970;4.962;2024-02-15T00:09:34;8.00;;;2.55;;
19903;SDS011;10114;50.970;4.962;2024-02-15T00:12:01;6.60;;;2.38;;
19903;SDS011;10114;50.970;4.962;2024-02-15T00:14:27;5.32;;;2.33;;
19903;SDS011;10114;50.970;4.962;2024-02-15T00:16:54;8.68;;;2.30;;
19903;SDS011;10114;50.970;4.962;2024-02-15T00:19:20;8.20;;;2.50;;
19903;SDS011;10114;50.970;4.962;2024-02-15T00:21:47;4.90;;;2.03;;
19903;SDS011;10114;50.970;4.962;2024-02-15T00:24:13;8.18;;;3.10;;
19903;SDS011;10114;50.970;4.962;2024-02-15T00:26:40;11.15;;;3.30;;
19903;SDS011;10114;50.970;4.962;2024-02-15T00:29:07;4.93;;;2.35;;
19903;SDS011;10114;50.970;4.962;2024-02-15T00:31:34;9.00;;;2.00;;
19903;SDS011;10114;50.970;4.962;2024-02-15T00:34:00;7.53;;;2.28;;
19903;SDS011;10114;50.970;4.962;2024-02-15T00:36:29;6.25;;;1.77;;
19903;SDS011;10114;50.970;4.962;2024-02-15T00:38:55;11.30;;;2.47;;
19903;SDS011;10114;50.970;4.962;2024-02-15T00:41:21;8.90;;;2.15;;
19903;SDS011;10114;50.970;4.962;2024-02-15T00:43:48;9.88;;;2.58;;
19903;SDS011;10114;50.970;4.962;2024-02-15T00:46:15;8.85;;;2.50;;
19903;SDS011;10114;50.970;4.962;2024-02-15T00:48:41;5.00;;;1.98;;
19903;SDS011;10114;50.970;4.962;2024-02-15T00:51:07;5.18;;;2.38;;
19903;SDS011;10114;50.970;4.962;2024-02-15T00:53:33;6.18;;;2.22;;
19903;SDS011;10114;50.970;4.962;2024-02-15T00:55:59;5.63;;;2.10;;
19903;SDS011;10114;50.970;4.962;2024-02-15T00:58:26;10.40;;;2.20;;
19903;SDS011;10114;50.970;4.962;2024-02-15T01:00:52;10.93;;;3.38;;
19903;SDS011;10114;50.970;4.962;2024-02-15T01:03:19;6.40;;;2.17;;
19903;SDS011;10114;50.970;4.962;2024-02-15T01:05:45;8.05;;;2.33;;
19903;SDS011;10114;50.970;4.962;2024-02-15T01:08:11;9.10;;;2.83;;
19903;SDS011;10114;50.970;4.962;2024-02-15T01:10:37;6.97;;;2.00;;
19903;SDS011;10114;50.970;4.962;2024-02-15T01:13:04;5.13;;;2.17;;
19903;SDS011;10114;50.970;4.962;2024-02-15T01:15:30;8.05;;;2.15;;
19903;SDS011;10114;50.970;4.962;2024-02-15T01:17:56;5.60;;;1.95;;
19903;SDS011;10114;50.970;4.962;2024-02-15T01:20:22;7.60;;;1.52;;
19903;SDS011;10114;50.970;4.962;2024-02-15T01:22:48;5.95;;;1.77;;
19903;SDS011;10114;50.970;4.962;2024-02-15T01:25:16;3.85;;;1.38;;
19903;SDS011;10114;50.970;4.962;2024-02-15T01:27:42;6.28;;;2.67;;
19903;SDS011;10114;50.970;4.962;2024-02-15T01:30:09;5.72;;;2.08;;
19903;SDS011;10114;50.970;4.962;2024-02-15T01:32:35;6.93;;;2.25;;
19903;SDS011;10114;50.970;4.962;2024-02-15T01:35:02;6.40;;;1.58;;
19903;SDS011;10114;50.970;4.962;2024-02-15T01:37:28;9.38;;;2.08;;
19903;SDS011;10114;50.970;4.962;2024-02-15T01:39:54;6.03;;;2.00;;
19903;SDS011;10114;50.970;4.962;2024-02-15T01:42:20;7.00;;;2.33;;
19903;SDS011;10114;50.970;4.962;2024-02-15T01:44:46;3.83;;;1.88;;
19903;SDS011;10114;50.970;4.962;2024-02-15T01:47:14;6.85;;;1.70;;
19903;SDS011;10114;50.970;4.962;2024-02-15T01:49:42;8.63;;;1.50;;
19903;SDS011;10114;50.970;4.962;2024-02-15T01:52:08;4.90;;;1.35;;
19903;SDS011;10114;50.970;4.962;2024-02-15T01:54:35;4.18;;;1.15;;
19903;SDS011;10114;50.970;4.962;2024-02-15T01:57:04;4.93;;;1.52;;
19903;SDS011;10114;50.970;4.962;2024-02-15T01:59:30;6.40;;;1.75;;
19903;SDS011;10114;50.970;4.962;2024-02-15T02:01:56;6.60;;;1.50;;
19903;SDS011;10114;50.970;4.962;2024-02-15T02:04:22;3.85;;;1.42;;
19903;SDS011;10114;50.970;4.962;2024-02-15T02:06:48;5.75;;;1.45;;
19903;SDS011;10114;50.970;4.962;2024-02-15T02:09:14;5.78;;;1.30;;
19903;SDS011;10114;50.970;4.962;2024-02-15T02:11:41;5.35;;;1.42;;
19903;SDS011;10114;50.970;4.962;2024-02-15T02:14:07;7.68;;;1.83;;
19903;SDS011;10114;50.970;4.962;2024-02-15T02:16:33;9.95;;;2.00;;
19903;SDS011;10114;50.970;4.962;2024-02-15T02:19:04;5.68;;;1.58;;
19903;SDS011;10114;50.970;4.962;2024-02-15T02:21:34;4.05;;;1.77;;
19903;SDS011;10114;50.970;4.962;2024-02-15T02:24:02;5.32;;;1.75;;
19903;SDS011;10114;50.970;4.962;2024-02-15T02:26:33;10.23;;;1.90;;
19903;SDS011;10114;50.970;4.962;2024-02-15T02:29:02;6.10;;;1.80;;
19903;SDS011;10114;50.970;4.962;2024-02-15T02:31:35;4.25;;;1.48;;
19903;SDS011;10114;50.970;4.962;2024-02-15T02:34:01;5.28;;;1.35;;
19903;SDS011;10114;50.970;4.962;2024-02-15T02:36:28;4.43;;;1.15;;
19903;SDS011;10114;50.970;4.962;2024-02-15T02:38:54;2.38;;;1.15;;
19903;SDS011;10114;50.970;4.962;2024-02-15T02:41:25;3.80;;;1.42;;
19903;SDS011;10114;50.970;4.962;2024-02-15T02:43:51;3.75;;;1.20;;
19903;SDS011;10114;50.970;4.962;2024-02-15T02:46:17;7.18;;;1.45;;
19903;SDS011;10114;50.970;4.962;2024-02-15T02:48:43;3.45;;;1.20;;
19903;SDS011;10114;50.970;4.962;2024-02-15T02:51:10;3.25;;;1.20;;
19903;SDS011;10114;50.970;4.962;2024-02-15T02:53:36;6.35;;;1.15;;
19903;SDS011;10114;50.970;4.962;2024-02-15T02:56:02;2.75;;;1.13;;
19903;SDS011;10114;50.970;4.962;2024-02-15T02:58:29;3.75;;;1.20;;
19903;SDS011;10114;50.970;4.962;2024-02-15T03:00:55;2.67;;;1.05;;
19903;SDS011;10114;50.970;4.962;2024-02-15T03:03:21;4.45;;;1.15;;
19903;SDS011;10114;50.970;4.962;2024-02-15T03:05:48;4.57;;;1.35;;
19903;SDS011;10114;50.970;4.962;2024-02-15T03:08:14;2.70;;;0.80;;
19903;SDS011;10114;50.970;4.962;2024-02-15T03:10:42;4.32;;;1.35;;
19903;SDS011;10114;50.970;4.962;2024-02-15T03:13:08;3.47;;;0.98;;
19903;SDS011;10114;50.970;4.962;2024-02-15T03:15:35;2.30;;;0.90;;
19903;SDS011;10114;50.970;4.962;2024-02-15T03:18:01;4.18;;;1.17;;
19903;SDS011;10114;50.970;4.962;2024-02-15T03:20:32;3.17;;;0.88;;
19903;SDS011;10114;50.970;4.962;2024-02-15T03:22:59;3.78;;;0.90;;
19903;SDS011;10114;50.970;4.962;2024-02-15T03:25:26;8.07;;;1.58;;
19903;SDS011;10114;50.970;4.962;2024-02-15T03:27:54;3.60;;;0.90;;
19903;SDS011;10114;50.970;4.962;2024-02-15T03:30:21;5.28;;;1.40;;
19903;SDS011;10114;50.970;4.962;2024-02-15T03:32:49;3.05;;;0.90;;
19903;SDS011;10114;50.970;4.962;2024-02-15T03:35:18;1.63;;;0.60;;
19903;SDS011;10114;50.970;4.962;2024-02-15T03:37:45;4.57;;;0.90;;
19903;SDS011;10114;50.970;4.962;2024-02-15T03:40:11;3.92;;;0.80;;
19903;SDS011;10114;50.970;4.962;2024-02-15T03:42:37;2.70;;;0.88;;
19903;SDS011;10114;50.970;4.962;2024-02-15T03:45:04;3.75;;;0.90;;
19903;SDS011;10114;50.970;4.962;2024-02-15T03:47:33;2.22;;;1.05;;
19903;SDS011;10114;50.970;4.962;2024-02-15T03:50:00;4.70;;;1.33;;
19903;SDS011;10114;50.970;4.962;2024-02-15T03:52:26;1.35;;;0.63;;
19903;SDS011;10114;50.970;4.962;2024-02-15T03:54:55;6.57;;;2.33;;
19903;SDS011;10114;50.970;4.962;2024-02-15T03:57:22;5.88;;;1.00;;
19903;SDS011;10114;50.970;4.962;2024-02-15T03:59:48;5.00;;;1.05;;
19903;SDS011;10114;50.970;4.962;2024-02-15T04:02:18;3.65;;;0.98;;
19903;SDS011;10114;50.970;4.962;2024-02-15T04:04:44;3.40;;;1.05;;
19903;SDS011;10114;50.970;4.962;2024-02-15T04:07:13;2.22;;;0.60;;
19903;SDS011;10114;50.970;4.962;2024-02-15T04:09:39;2.75;;;0.80;;
19903;SDS011;10114;50.970;4.962;2024-02-15T04:12:05;4.38;;;1.10;;
19903;SDS011;10114;50.970;4.962;2024-02-15T04:14:32;2.42;;;1.00;;
19903;SDS011;10114;50.970;4.962;2024-02-15T04:17:03;4.28;;;1.08;;
19903;SDS011;10114;50.970;4.962;2024-02-15T04:19:30;2.53;;;1.00;;
19903;SDS011;10114;50.970;4.962;2024-02-15T04:21:56;4.78;;;1.05;;
19903;SDS011;10114;50.970;4.962;2024-02-15T04:24:22;2.55;;;0.88;;
19903;SDS011;10114;50.970;4.962;2024-02-15T04:26:48;4.25;;;1.13;;
19903;SDS011;10114;50.970;4.962;2024-02-15T04:29:16;4.07;;;0.75;;
19903;SDS011;10114;50.970;4.962;2024-02-15T04:31:45;3.83;;;0.82;;
19903;SDS011;10114;50.970;4.962;2024-02-15T04:34:14;2.33;;;0.80;;
19903;SDS011;10114;50.970;4.962;2024-02-15T04:36:40;2.20;;;0.90;;
19903;SDS011;10114;50.970;4.962;2024-02-15T04:39:07;2.92;;;0.88;;
19903;SDS011;10114;50.970;4.962;2024-02-15T04:41:36;3.83;;;1.10;;
19903;SDS011;10114;50.970;4.962;2024-02-15T04:44:04;2.90;;;0.88;;
19903;SDS011;10114;50.970;4.962;2024-02-15T04:46:33;3.25;;;0.80;;
19903;SDS011;10114;50.970;4.962;2024-02-15T04:48:59;4.80;;;1.02;;
19903;SDS011;10114;50.970;4.962;2024-02-15T04:51:28;2.50;;;1.00;;
19903;SDS011;10114;50.970;4.962;2024-02-15T04:53:54;2.30;;;0.88;;
19903;SDS011;10114;50.970;4.962;2024-02-15T04:56:22;2.70;;;0.80;;
19903;SDS011;10114;50.970;4.962;2024-02-15T04:58:49;1.67;;;0.80;;
19903;SDS011;10114;50.970;4.962;2024-02-15T05:01:16;6.30;;;0.82;;
19903;SDS011;10114;50.970;4.962;2024-02-15T05:03:42;4.82;;;1.00;;
19903;SDS011;10114;50.970;4.962;2024-02-15T05:06:09;3.42;;;0.90;;
19903;SDS011;10114;50.970;4.962;2024-02-15T05:08:38;2.75;;;0.88;;
19903;SDS011;10114;50.970;4.962;2024-02-15T05:11:08;1.80;;;0.80;;
19903;SDS011;10114;50.970;4.962;2024-02-15T05:13:39;1.25;;;0.63;;
19903;SDS011;10114;50.970;4.962;2024-02-15T05:16:05;4.13;;;0.80;;
19903;SDS011;10114;50.970;4.962;2024-02-15T05:18:32;3.58;;;1.00;;
19903;SDS011;10114;50.970;4.962;2024-02-15T05:21:00;1.83;;;0.60;;
19903;SDS011;10114;50.970;4.962;2024-02-15T05:23:27;2.13;;;0.68;;
19903;SDS011;10114;50.970;4.962;2024-02-15T05:25:53;2.92;;;0.90;;
19903;SDS011;10114;50.970;4.962;2024-02-15T05:28:21;3.10;;;0.70;;
19903;SDS011;10114;50.970;4.962;2024-02-15T05:31:08;2.75;;;1.08;;
19903;SDS011;10114;50.970;4.962;2024-02-15T05:33:35;4.60;;;1.02;;
19903;SDS011;10114;50.970;4.962;2024-02-15T05:36:03;5.00;;;1.10;;
19903;SDS011;10114;50.970;4.962;2024-02-15T05:38:30;3.03;;;0.98;;
19903;SDS011;10114;50.970;4.962;2024-02-15T05:40:56;4.22;;;0.75;;
19903;SDS011;10114;50.970;4.962;2024-02-15T05:43:22;2.97;;;0.68;;
19903;SDS011;10114;50.970;4.962;2024-02-15T05:45:50;3.03;;;1.08;;
19903;SDS011;10114;50.970;4.962;2024-02-15T05:48:17;6.65;;;1.20;;
19903;SDS011;10114;50.970;4.962;2024-02-15T05:50:43;3.88;;;1.00;;
19903;SDS011;10114;50.970;4.962;2024-02-15T05:53:09;1.60;;;0.75;;
19903;SDS011;10114;50.970;4.962;2024-02-15T05:55:35;4.43;;;1.30;;
19903;SDS011;10114;50.970;4.962;2024-02-15T05:58:05;3.58;;;0.82;;
19903;SDS011;10114;50.970;4.962;2024-02-15T06:00:34;1.92;;;0.88;;
19903;SDS011;10114;50.970;4.962;2024-02-15T06:03:00;6.18;;;1.10;;
19903;SDS011;10114;50.970;4.962;2024-02-15T06:05:27;3.28;;;1.00;;
19903;SDS011;10114;50.970;4.962;2024-02-15T06:07:53;4.35;;;1.25;;
19903;SDS011;10114;50.970;4.962;2024-02-15T06:10:19;3.85;;;0.75;;
19903;SDS011;10114;50.970;4.962;2024-02-15T06:12:45;2.72;;;1.00;;
19903;SDS011;10114;50.970;4.962;2024-02-15T06:15:11;3.72;;;1.05;;
19903;SDS011;10114;50.970;4.962;2024-02-15T06:17:41;4.90;;;1.30;;
19903;SDS011;10114;50.970;4.962;2024-02-15T06:20:10;3.50;;;1.05;;
19903;SDS011;10114;50.970;4.962;2024-02-15T06:22:38;2.97;;;0.75;;
19903;SDS011;10114;50.970;4.962;2024-02-15T06:25:04;4.50;;;1.23;;
19903;SDS011;10114;50.970;4.962;2024-02-15T06:27:31;3.78;;;1.70;;
19903;SDS011;10114;50.970;4.962;2024-02-15T06:29:57;3.45;;;1.10;;
19903;SDS011;10114;50.970;4.962;2024-02-15T06:32:42;4.97;;;0.98;;
19903;SDS011;10114;50.970;4.962;2024-02-15T06:35:27;5.80;;;1.20;;
19903;SDS011;10114;50.970;4.962;2024-02-15T06:38:12;3.20;;;1.00;;
19903;SDS011;10114;50.970;4.962;2024-02-15T06:40:57;3.47;;;1.35;;
19903;SDS011;10114;50.970;4.962;2024-02-15T06:43:23;1.83;;;0.80;;
19903;SDS011;10114;50.970;4.962;2024-02-15T06:45:49;4.85;;;0.90;;
19903;SDS011;10114;50.970;4.962;2024-02-15T06:48:16;2.97;;;1.00;;
19903;SDS011;10114;50.970;4.962;2024-02-15T06:50:42;4.57;;;0.88;;
19903;SDS011;10114;50.970;4.962;2024-02-15T06:53:08;3.45;;;1.08;;
19903;SDS011;10114;50.970;4.962;2024-02-15T06:55:35;2.80;;;0.95;;
19903;SDS011;10114;50.970;4.962;2024-02-15T06:58:01;3.03;;;0.85;;
19903;SDS011;10114;50.970;4.962;2024-02-15T07:00:27;2.58;;;0.88;;
19903;SDS011;10114;50.970;4.962;2024-02-15T07:02:55;2.35;;;0.57;;
19903;SDS011;10114;50.970;4.962;2024-02-15T07:05:21;5.93;;;1.45;;
19903;SDS011;10114;50.970;4.962;2024-02-15T07:07:48;5.25;;;0.90;;
19903;SDS011;10114;50.970;4.962;2024-02-15T07:10:14;2.95;;;0.75;;
19903;SDS011;10114;50.970;4.962;2024-02-15T07:12:43;3.20;;;0.95;;
19903;SDS011;10114;50.970;4.962;2024-02-15T07:15:10;2.13;;;0.70;;
19903;SDS011;10114;50.970;4.962;2024-02-15T07:17:37;3.10;;;0.90;;
19903;SDS011;10114;50.970;4.962;2024-02-15T07:20:03;3.13;;;0.80;;
19903;SDS011;10114;50.970;4.962;2024-02-15T07:22:30;3.67;;;0.63;;
19903;SDS011;10114;50.970;4.962;2024-02-15T07:24:57;2.53;;;0.60;;
19903;SDS011;10114;50.970;4.962;2024-02-15T07:27:23;1.98;;;0.70;;
19903;SDS011;10114;50.970;4.962;2024-02-15T07:29:52;2.30;;;0.75;;
19903;SDS011;10114;50.970;4.962;2024-02-15T07:32:19;3.13;;;0.70;;
19903;SDS011;10114;50.970;4.962;2024-02-15T07:34:45;2.33;;;0.70;;
19903;SDS011;10114;50.970;4.962;2024-02-15T07:37:13;1.77;;;0.65;;
19903;SDS011;10114;50.970;4.962;2024-02-15T07:39:41;3.50;;;0.75;;
19903;SDS011;10114;50.970;4.962;2024-02-15T07:42:07;2.22;;;0.55;;
19903;SDS011;10114;50.970;4.962;2024-02-15T07:44:34;4.47;;;0.90;;
19903;SDS011;10114;50.970;4.962;2024-02-15T07:47:01;2.03;;;0.70;;
19903;SDS011;10114;50.970;4.962;2024-02-15T07:49:29;3.58;;;0.73;;
19903;SDS011;10114;50.970;4.962;2024-02-15T07:51:55;3.20;;;0.68;;
19903;SDS011;10114;50.970;4.962;2024-02-15T07:54:23;1.60;;;0.80;;
19903;SDS011;10114;50.970;4.962;2024-02-15T07:56:49;2.78;;;0.77;;
19903;SDS011;10114;50.970;4.962;2024-02-15T07:59:15;2.17;;;1.00;;
19903;SDS011;10114;50.970;4.962;2024-02-15T08:01:42;2.70;;;0.82;;
19903;SDS011;10114;50.970;4.962;2024-02-15T08:04:10;2.63;;;0.95;;
19903;SDS011;10114;50.970;4.962;2024-02-15T08:06:37;2.90;;;0.77;;
19903;SDS011;10114;50.970;4.962;2024-02-15T08:09:03;5.25;;;1.02;;
19903;SDS011;10114;50.970;4.962;2024-02-15T08:11:38;7.25;;;1.02;;
19903;SDS011;10114;50.970;4.962;2024-02-15T08:14:05;1.38;;;0.77;;
19903;SDS011;10114;50.970;4.962;2024-02-15T08:16:33;3.97;;;0.90;;
19903;SDS011;10114;50.970;4.962;2024-02-15T08:18:59;3.40;;;0.85;;
19903;SDS011;10114;50.970;4.962;2024-02-15T08:21:30;2.33;;;0.90;;
19903;SDS011;10114;50.970;4.962;2024-02-15T08:24:04;4.35;;;1.83;;
19903;SDS011;10114;50.970;4.962;2024-02-15T08:26:37;3.47;;;0.82;;
19903;SDS011;10114;50.970;4.962;2024-02-15T08:29:03;3.05;;;0.90;;
19903;SDS011;10114;50.970;4.962;2024-02-15T08:31:29;2.28;;;0.70;;
19903;SDS011;10114;50.970;4.962;2024-02-15T08:33:56;1.63;;;0.57;;
19903;SDS011;10114;50.970;4.962;2024-02-15T08:36:22;1.98;;;0.70;;
19903;SDS011;10114;50.970;4.962;2024-02-15T08:38:49;3.00;;;0.63;;
19903;SDS011;10114;50.970;4.962;2024-02-15T08:41:15;2.10;;;1.02;;
19903;SDS011;10114;50.970;4.962;2024-02-15T08:43:43;2.42;;;0.77;;
19903;SDS011;10114;50.970;4.962;2024-02-15T08:46:09;5.20;;;0.93;;
19903;SDS011;10114;50.970;4.962;2024-02-15T08:48:36;2.03;;;0.60;;
19903;SDS011;10114;50.970;4.962;2024-02-15T08:51:02;3.63;;;0.70;;
19903;SDS011;10114;50.970;4.962;2024-02-15T08:53:28;2.35;;;0.90;;
19903;SDS011;10114;50.970;4.962;2024-02-15T08:55:54;4.82;;;0.98;;
19903;SDS011;10114;50.970;4.962;2024-02-15T08:58:20;6.55;;;1.17;;
19903;SDS011;10114;50.970;4.962;2024-02-15T09:00:46;4.78;;;1.05;;
19903;SDS011;10114;50.970;4.962;2024-02-15T09:03:13;1.48;;;0.63;;
19903;SDS011;10114;50.970;4.962;2024-02-15T09:05:42;2.35;;;0.82;;
19903;SDS011;10114;50.970;4.962;2024-02-15T09:08:09;2.17;;;0.52;;
19903;SDS011;10114;50.970;4.962;2024-02-15T09:10:35;4.72;;;1.00;;
19903;SDS011;10114;50.970;4.962;2024-02-15T09:13:04;1.35;;;0.60;;
19903;SDS011;10114;50.970;4.962;2024-02-15T09:15:31;4.03;;;1.02;;
19903;SDS011;10114;50.970;4.962;2024-02-15T09:17:57;1.40;;;0.63;;
19903;SDS011;10114;50.970;4.962;2024-02-15T09:20:23;4.05;;;0.85;;
19903;SDS011;10114;50.970;4.962;2024-02-15T09:22:53;4.45;;;0.80;;
19903;SDS011;10114;50.970;4.962;2024-02-15T09:25:20;1.92;;;0.70;;
19903;SDS011;10114;50.970;4.962;2024-02-15T09:27:48;3.45;;;0.90;;
19903;SDS011;10114;50.970;4.962;2024-02-15T09:30:15;3.45;;;0.80;;
19903;SDS011;10114;50.970;4.962;2024-02-15T09:32:42;3.08;;;1.00;;
19903;SDS011;10114;50.970;4.962;2024-02-15T09:35:11;6.18;;;0.90;;
19903;SDS011;10114;50.970;4.962;2024-02-15T09:37:38;1.42;;;0.50;;
19903;SDS011;10114;50.970;4.962;2024-02-15T09:40:08;2.88;;;0.73;;
19903;SDS011;10114;50.970;4.962;2024-02-15T09:42:35;1.58;;;0.60;;
19903;SDS011;10114;50.970;4.962;2024-02-15T09:45:04;2.22;;;0.85;;
19903;SDS011;10114;50.970;4.962;2024-02-15T09:47:36;4.82;;;0.90;;
19903;SDS011;10114;50.970;4.962;2024-02-15T09:50:12;2.35;;;0.60;;
19903;SDS011;10114;50.970;4.962;2024-02-15T09:52:39;2.03;;;0.60;;
19903;SDS011;10114;50.970;4.962;2024-02-15T09:55:06;6.43;;;1.00;;
19903;SDS011;10114;50.970;4.962;2024-02-15T09:57:38;0.85;;;0.40;;
19903;SDS011;10114;50.970;4.962;2024-02-15T10:00:04;1.25;;;0.43;;
19903;SDS011;10114;50.970;4.962;2024-02-15T10:02:36;1.20;;;0.70;;
19903;SDS011;10114;50.970;4.962;2024-02-15T10:05:04;9.27;;;0.93;;
19903;SDS011;10114;50.970;4.962;2024-02-15T10:07:30;4.00;;;1.17;;
19903;SDS011;10114;50.970;4.962;2024-02-15T10:09:56;1.58;;;0.55;;
19903;SDS011;10114;50.970;4.962;2024-02-15T10:12:22;2.45;;;0.90;;
19903;SDS011;10114;50.970;4.962;2024-02-15T10:15:03;3.08;;;1.05;;
19903;SDS011;10114;50.970;4.962;2024-02-15T10:17:32;2.20;;;0.65;;
19903;SDS011;10114;50.970;4.962;2024-02-15T10:20:04;3.22;;;0.73;;
19903;SDS011;10114;50.970;4.962;2024-02-15T10:22:30;3.38;;;0.70;;
19903;SDS011;10114;50.970;4.962;2024-02-15T10:25:12;1.45;;;0.65;;
19903;SDS011;10114;50.970;4.962;2024-02-15T10:27:42;1.75;;;0.73;;
19903;SDS011;10114;50.970;4.962;2024-02-15T10:30:15;1.63;;;0.82;;
19903;SDS011;10114;50.970;4.962;2024-02-15T10:32:41;1.48;;;0.55;;
19903;SDS011;10114;50.970;4.962;2024-02-15T10:35:07;2.45;;;0.60;;
19903;SDS011;10114;50.970;4.962;2024-02-15T10:37:33;4.32;;;0.68;;
19903;SDS011;10114;50.970;4.962;2024-02-15T10:40:05;4.40;;;0.75;;
19903;SDS011;10114;50.970;4.962;2024-02-15T10:42:32;4.63;;;0.70;;
19903;SDS011;10114;50.970;4.962;2024-02-15T10:45:02;2.95;;;0.75;;
19903;SDS011;10114;50.970;4.962;2024-02-15T10:47:35;6.20;;;1.38;;
19903;SDS011;10114;50.970;4.962;2024-02-15T10:50:03;1.25;;;0.55;;
19903;SDS011;10114;50.970;4.962;2024-02-15T10:52:31;1.63;;;0.70;;
19903;SDS011;10114;50.970;4.962;2024-02-15T10:55:03;2.13;;;0.77;;
19903;SDS011;10114;50.970;4.962;2024-02-15T10:57:34;7.43;;;1.50;;
19903;SDS011;10114;50.970;4.962;2024-02-15T11:00:04;1.95;;;0.60;;
19903;SDS011;10114;50.970;4.962;2024-02-15T11:02:42;1.45;;;0.45;;
19903;SDS011;10114;50.970;4.962;2024-02-15T11:05:10;2.42;;;0.77;;
19903;SDS011;10114;50.970;4.962;2024-02-15T11:07:37;2.85;;;0.60;;
19903;SDS011;10114;50.970;4.962;2024-02-15T11:10:04;3.97;;;0.95;;
19903;SDS011;10114;50.970;4.962;2024-02-15T11:12:33;2.47;;;0.70;;
19903;SDS011;10114;50.970;4.962;2024-02-15T11:14:59;3.80;;;0.75;;
19903;SDS011;10114;50.970;4.962;2024-02-15T11:17:47;1.73;;;0.65;;
19903;SDS011;10114;50.970;4.962;2024-02-15T11:23:01;4.32;;;0.90;;
19903;SDS011;10114;50.970;4.962;2024-02-15T11:25:32;1.38;;;0.60;;
19903;SDS011;10114;50.970;4.962;2024-02-15T11:30:52;2.90;;;0.80;;
19903;SDS011;10114;50.970;4.962;2024-02-15T11:33:31;4.82;;;0.80;;
19903;SDS011;10114;50.970;4.962;2024-02-15T11:36:13;3.97;;;0.80;;
19903;SDS011;10114;50.970;4.962;2024-02-15T11:38:39;5.18;;;0.93;;
19903;SDS011;10114;50.970;4.962;2024-02-15T11:41:09;1.73;;;0.63;;
19903;SDS011;10114;50.970;4.962;2024-02-15T11:46:14;2.83;;;0.50;;
19903;SDS011;10114;50.970;4.962;2024-02-15T11:48:40;1.75;;;0.60;;
19903;SDS011;10114;50.970;4.962;2024-02-15T11:51:06;3.72;;;0.80;;
19903;SDS011;10114;50.970;4.962;2024-02-15T11:53:36;4.78;;;0.90;;
19903;SDS011;10114;50.970;4.962;2024-02-15T11:56:02;4.35;;;0.63;;
19903;SDS011;10114;50.970;4.962;2024-02-15T11:58:35;3.65;;;0.82;;
19903;SDS011;10114;50.970;4.962;2024-02-15T12:01:11;6.40;;;1.45;;
19903;SDS011;10114;50.970;4.962;2024-02-15T12:03:56;5.57;;;0.95;;
19903;SDS011;10114;50.970;4.962;2024-02-15T12:06:40;3.65;;;1.13;;
19903;SDS011;10114;50.970;4.962;2024-02-15T12:09:25;3.63;;;1.05;;
19903;SDS011;10114;50.970;4.962;2024-02-15T12:12:09;1.88;;;0.93;;
19903;SDS011;10114;50.970;4.962;2024-02-15T12:15:00;3.67;;;1.23;;
19903;SDS011;10114;50.970;4.962;2024-02-15T12:17:45;5.97;;;1.90;;
19903;SDS011;10114;50.970;4.962;2024-02-15T12:20:30;3.50;;;1.00;;
19903;SDS011;10114;50.970;4.962;2024-02-15T12:22:56;4.72;;;0.90;;
19903;SDS011;10114;50.970;4.962;2024-02-15T12:25:25;2.53;;;1.02;;
19903;SDS011;10114;50.970;4.962;2024-02-15T12:27:55;1.73;;;0.50;;
19903;SDS011;10114;50.970;4.962;2024-02-15T12:30:21;1.63;;;0.60;;
19903;SDS011;10114;50.970;4.962;2024-02-15T12:32:50;1.40;;;0.50;;
19903;SDS011;10114;50.970;4.962;2024-02-15T12:35:20;1.17;;;0.52;;
19903;SDS011;10114;50.970;4.962;2024-02-15T12:38:01;2.47;;;0.90;;
19903;SDS011;10114;50.970;4.962;2024-02-15T12:40:30;1.20;;;0.50;;
19903;SDS011;10114;50.970;4.962;2024-02-15T12:42:57;1.63;;;0.70;;
19903;SDS011;10114;50.970;4.962;2024-02-15T12:45:25;1.75;;;0.63;;
19903;SDS011;10114;50.970;4.962;2024-02-15T12:47:54;1.67;;;0.55;;
19903;SDS011;10114;50.970;4.962;2024-02-15T12:50:21;1.33;;;0.47;;
19903;SDS011;10114;50.970;4.962;2024-02-15T12:52:51;0.82;;;0.35;;
19903;SDS011;10114;50.970;4.962;2024-02-15T12:55:19;1.58;;;0.30;;
19903;SDS011;10114;50.970;4.962;2024-02-15T12:57:55;4.28;;;0.70;;
19903;SDS011;10114;50.970;4.962;2024-02-15T13:00:22;4.15;;;0.70;;
19903;SDS011;10114;50.970;4.962;2024-02-15T13:02:53;2.28;;;0.70;;
19903;SDS011;10114;50.970;4.962;2024-02-15T13:05:21;4.40;;;0.95;;
19903;SDS011;10114;50.970;4.962;2024-02-15T13:07:48;2.45;;;0.90;;
19903;SDS011;10114;50.970;4.962;2024-02-15T13:10:15;3.47;;;0.77;;
19903;SDS011;10114;50.970;4.962;2024-02-15T13:12:41;2.75;;;0.40;;
19903;SDS011;10114;50.970;4.962;2024-02-15T13:15:09;1.20;;;0.50;;
19903;SDS011;10114;50.970;4.962;2024-02-15T13:17:46;2.50;;;0.55;;
19903;SDS011;10114;50.970;4.962;2024-02-15T13:20:19;1.65;;;0.17;;
19903;SDS011;10114;50.970;4.962;2024-02-15T13:22:45;2.85;;;0.65;;
19903;SDS011;10114;50.970;4.962;2024-02-15T13:25:14;2.00;;;0.60;;
19903;SDS011;10114;50.970;4.962;2024-02-15T13:27:46;1.35;;;0.55;;
19903;SDS011;10114;50.970;4.962;2024-02-15T13:30:12;1.58;;;0.40;;
19903;SDS011;10114;50.970;4.962;2024-02-15T13:32:39;3.10;;;1.00;;
19903;SDS011;10114;50.970;4.962;2024-02-15T13:35:08;1.52;;;0.50;;
19903;SDS011;10114;50.970;4.962;2024-02-15T13:37:47;4.38;;;0.60;;
19903;SDS011;10114;50.970;4.962;2024-02-15T13:40:13;2.05;;;0.60;;
19903;SDS011;10114;50.970;4.962;2024-02-15T13:42:43;3.33;;;0.40;;
19903;SDS011;10114;50.970;4.962;2024-02-15T13:45:14;1.65;;;0.52;;
19903;SDS011;10114;50.970;4.962;2024-02-15T13:47:43;1.65;;;0.52;;
19903;SDS011;10114;50.970;4.962;2024-02-15T13:50:11;0.93;;;0.40;;
19903;SDS011;10114;50.970;4.962;2024-02-15T13:52:39;2.70;;;0.98;;
19903;SDS011;10114;50.970;4.962;2024-02-15T13:55:09;1.75;;;0.50;;
19903;SDS011;10114;50.970;4.962;2024-02-15T13:57:36;1.67;;;0.55;;
19903;SDS011;10114;50.970;4.962;2024-02-15T14:00:02;2.55;;;0.65;;
19903;SDS011;10114;50.970;4.962;2024-02-15T14:02:30;6.25;;;0.80;;
19903;SDS011;10114;50.970;4.962;2024-02-15T14:04:57;1.85;;;0.43;;
19903;SDS011;10114;50.970;4.962;2024-02-15T14:07:23;0.57;;;0.40;;
19903;SDS011;10114;50.970;4.962;2024-02-15T14:09:49;3.53;;;0.95;;
19903;SDS011;10114;50.970;4.962;2024-02-15T14:12:15;4.25;;;0.90;;
19903;SDS011;10114;50.970;4.962;2024-02-15T14:14:41;3.55;;;0.70;;
19903;SDS011;10114;50.970;4.962;2024-02-15T14:17:08;2.97;;;0.60;;
19903;SDS011;10114;50.970;4.962;2024-02-15T14:19:34;1.90;;;0.80;;
19903;SDS011;10114;50.970;4.962;2024-02-15T14:22:02;2.05;;;0.57;;
19903;SDS011;10114;50.970;4.962;2024-02-15T14:24:33;3.10;;;0.63;;
19903;SDS011;10114;50.970;4.962;2024-02-15T14:27:00;5.22;;;0.70;;
19903;SDS011;10114;50.970;4.962;2024-02-15T14:29:26;1.40;;;0.40;;
19903;SDS011;10114;50.970;4.962;2024-02-15T14:31:58;1.80;;;0.50;;
19903;SDS011;10114;50.970;4.962;2024-02-15T14:34:42;1.08;;;0.40;;
19903;SDS011;10114;50.970;4.962;2024-02-15T14:37:08;1.27;;;0.50;;
19903;SDS011;10114;50.970;4.962;2024-02-15T14:39:35;1.75;;;0.50;;
19903;SDS011;10114;50.970;4.962;2024-02-15T14:42:01;3.72;;;0.65;;
19903;SDS011;10114;50.970;4.962;2024-02-15T14:44:27;1.75;;;0.65;;
19903;SDS011;10114;50.970;4.962;2024-02-15T14:46:53;0.80;;;0.40;;
19903;SDS011;10114;50.970;4.962;2024-02-15T14:49:19;2.42;;;0.50;;
19903;SDS011;10114;50.970;4.962;2024-02-15T14:51:45;1.13;;;0.52;;
19903;SDS011;10114;50.970;4.962;2024-02-15T14:54:11;1.23;;;0.50;;
19903;SDS011;10114;50.970;4.962;2024-02-15T14:56:39;3.50;;;1.00;;
19903;SDS011;10114;50.970;4.962;2024-02-15T14:59:07;3.00;;;0.68;;
19903;SDS011;10114;50.970;4.962;2024-02-15T15:01:33;2.08;;;0.52;;
19903;SDS011;10114;50.970;4.962;2024-02-15T15:04:00;1.33;;;0.60;;